createdAt,value
2023-08-15T00:02:25.703Z,22.66
2023-08-15T00:05:29.387Z,22.74
2023-08-15T00:08:38.252Z,22.64
2023-08-15T00:11:41.938Z,22.64
2023-08-15T00:14:45.437Z,22.47
2023-08-15T00:17:48.340Z,22.49
2023-08-15T00:20:51.932Z,22.07
2023-08-15T00:23:55.532Z,22.28
2023-08-15T00:26:59.008Z,22.26
2023-08-15T00:30:01.910Z,22.36
2023-08-15T00:33:07.419Z,22.44
2023-08-15T00:36:10.427Z,22.42
2023-08-15T00:39:13.376Z,22.29
2023-08-15T00:42:16.392Z,22.39
2023-08-15T00:45:19.407Z,22.25
2023-08-15T00:48:24.149Z,22.29
2023-08-15T00:51:28.407Z,22.30
2023-08-15T00:54:33.160Z,22.16
2023-08-15T00:57:36.133Z,22.06
2023-08-15T01:00:40.321Z,21.93
2023-08-15T01:03:43.363Z,21.85
2023-08-15T01:06:46.983Z,21.78
2023-08-15T01:09:50.189Z,22.04
2023-08-15T01:13:19.557Z,21.91
2023-08-15T01:16:29.739Z,21.84
2023-08-15T01:19:44.552Z,21.75
2023-08-15T01:22:52.090Z,21.90
2023-08-15T01:25:56.686Z,21.80
2023-08-15T01:29:00.530Z,21.83
2023-08-15T01:32:30.566Z,21.83
2023-08-15T01:35:45.103Z,21.92
2023-08-15T01:38:55.516Z,21.91
2023-08-15T01:42:02.569Z,21.76
2023-08-15T01:45:07.781Z,21.61
2023-08-15T01:48:10.835Z,21.52
2023-08-15T01:51:14.853Z,21.49
2023-08-15T01:54:18.660Z,21.59
2023-08-15T01:57:22.453Z,21.57
2023-08-15T02:00:25.786Z,21.65
2023-08-15T02:03:28.691Z,21.61
2023-08-15T02:06:31.631Z,21.68
2023-08-15T02:09:35.124Z,21.74
2023-08-15T02:12:39.145Z,21.77
2023-08-15T02:15:42.155Z,21.75
2023-08-15T02:18:45.547Z,21.70
2023-08-15T02:21:48.458Z,21.62
2023-08-15T02:24:52.244Z,21.76
2023-08-15T02:27:55.574Z,21.66
2023-08-15T02:30:59.337Z,21.71
2023-08-15T02:34:02.340Z,21.62
2023-08-15T02:37:05.708Z,21.61
2023-08-15T02:40:11.172Z,21.47
2023-08-15T02:43:14.597Z,21.62
2023-08-15T02:46:18.529Z,21.61
2023-08-15T02:49:21.846Z,21.58
2023-08-15T02:52:25.617Z,21.50
2023-08-15T02:55:28.522Z,21.45
2023-08-15T02:58:32.111Z,21.34
2023-08-15T03:01:35.923Z,21.26
2023-08-15T03:04:39.606Z,21.27
2023-08-15T03:07:42.937Z,21.30
2023-08-15T03:10:46.662Z,21.14
2023-08-15T03:13:50.220Z,21.16
2023-08-15T03:16:54.263Z,21.26
2023-08-15T03:19:58.536Z,21.32
2023-08-15T03:23:02.182Z,21.32
2023-08-15T03:26:06.670Z,21.24
2023-08-15T03:29:12.445Z,21.25
2023-08-15T03:32:16.670Z,21.13
2023-08-15T03:35:22.738Z,20.97
2023-08-15T03:38:26.165Z,20.85
2023-08-15T03:41:29.286Z,20.99
2023-08-15T03:44:32.192Z,20.94
2023-08-15T03:47:35.035Z,21.01
2023-08-15T03:50:39.729Z,21.01
2023-08-15T03:53:44.623Z,21.03
2023-08-15T03:56:47.597Z,21.06
2023-08-15T03:59:50.475Z,21.03
2023-08-15T04:02:55.756Z,20.92
2023-08-15T04:05:59.482Z,21.05
2023-08-15T04:09:03.030Z,21.17
2023-08-15T04:12:06.663Z,21.08
2023-08-15T04:15:10.887Z,21.10
2023-08-15T04:18:13.914Z,21.07
2023-08-15T04:21:17.785Z,21.14
2023-08-15T04:24:21.059Z,21.13
2023-08-15T04:27:24.882Z,21.02
2023-08-15T04:30:28.057Z,21.12
2023-08-15T04:33:31.012Z,21.15
2023-08-15T04:36:35.049Z,21.16
2023-08-15T04:39:38.779Z,21.29
2023-08-15T04:42:43.904Z,21.19
2023-08-15T04:45:46.934Z,21.32
2023-08-15T04:48:49.913Z,21.29
2023-08-15T04:51:52.886Z,21.30
2023-08-15T04:54:56.345Z,21.40
2023-08-15T04:57:59.266Z,21.19
2023-08-15T05:01:03.349Z,21.40
2023-08-15T05:04:07.424Z,21.34
2023-08-15T05:07:10.331Z,21.52
2023-08-15T05:10:13.815Z,21.63
2023-08-15T05:13:20.452Z,21.74
2023-08-15T05:16:23.627Z,21.78
2023-08-15T05:19:26.924Z,21.79
2023-08-15T05:22:29.878Z,21.77
2023-08-15T05:25:33.209Z,21.95
2023-08-15T05:28:37.362Z,22.09
2023-08-15T05:31:41.542Z,22.15
2023-08-15T05:34:44.488Z,22.11
2023-08-15T05:37:47.825Z,22.28
2023-08-15T05:40:51.398Z,22.36
2023-08-15T05:43:54.232Z,22.44
2023-08-15T05:46:57.133Z,22.48
2023-08-15T05:50:00.017Z,22.69
2023-08-15T05:53:03.978Z,22.66
2023-08-15T05:56:07.933Z,22.83
2023-08-15T05:59:11.438Z,22.93
2023-08-15T06:02:15.276Z,22.98
2023-08-15T06:05:18.921Z,23.06
2023-08-15T06:08:22.524Z,23.18
2023-08-15T06:11:25.595Z,23.25
2023-08-15T06:14:28.481Z,23.33
2023-08-15T06:17:31.392Z,23.39
2023-08-15T06:20:34.402Z,23.51
2023-08-15T06:23:39.042Z,23.64
2023-08-15T06:26:42.221Z,23.67
2023-08-15T06:29:45.927Z,23.82
2023-08-15T06:32:49.496Z,23.90
2023-08-15T06:35:52.405Z,24.01
2023-08-15T06:38:56.548Z,24.11
2023-08-15T06:42:00.427Z,24.19
2023-08-15T06:45:12.908Z,24.28
2023-08-15T06:48:16.362Z,24.34
2023-08-15T06:51:19.279Z,24.25
2023-08-15T06:54:22.156Z,24.54
2023-08-15T06:57:25.132Z,24.60
2023-08-15T07:00:28.104Z,24.69
2023-08-15T07:03:33.526Z,24.74
2023-08-15T07:06:36.524Z,24.70
2023-08-15T07:09:39.536Z,24.67
2023-08-15T07:12:43.595Z,24.97
2023-08-15T07:15:47.956Z,25.12
2023-08-15T07:18:52.120Z,24.94
2023-08-15T07:21:55.596Z,25.28
2023-08-15T07:24:58.540Z,25.31
2023-08-15T07:28:01.359Z,25.44
2023-08-15T07:31:05.285Z,25.41
2023-08-15T07:34:09.257Z,25.37
2023-08-15T07:37:12.989Z,25.46
2023-08-15T07:40:21.020Z,25.44
2023-08-15T07:43:25.156Z,25.74
2023-08-15T07:46:30.210Z,25.77
2023-08-15T07:49:39.302Z,25.75
2023-08-15T07:52:43.020Z,25.94
2023-08-15T07:55:45.974Z,26.05
2023-08-15T07:58:48.731Z,26.19
2023-08-15T08:01:51.745Z,26.02
2023-08-15T08:04:55.764Z,26.42
2023-08-15T08:07:59.574Z,26.45
2023-08-15T08:11:02.540Z,26.51
2023-08-15T08:14:05.769Z,26.59
2023-08-15T08:17:09.879Z,26.63
2023-08-15T08:20:14.144Z,26.72
2023-08-15T08:23:17.704Z,26.89
2023-08-15T08:26:20.723Z,26.90
2023-08-15T08:29:23.720Z,26.97
2023-08-15T08:32:26.670Z,27.15
2023-08-15T08:35:30.157Z,27.35
2023-08-15T08:38:33.049Z,27.40
2023-08-15T08:41:40.778Z,27.41
2023-08-15T08:44:44.408Z,27.62
2023-08-15T08:47:48.122Z,27.63
2023-08-15T08:50:51.498Z,27.81
2023-08-15T08:53:55.779Z,27.83
2023-08-15T08:57:02.608Z,27.93
2023-08-15T09:00:13.726Z,27.87
2023-08-15T09:03:16.962Z,28.28
2023-08-15T09:06:21.645Z,28.38
2023-08-15T09:09:25.706Z,28.45
2023-08-15T09:12:38.731Z,28.63
2023-08-15T09:15:48.907Z,28.69
2023-08-15T09:18:52.693Z,28.85
2023-08-15T09:21:56.278Z,28.90
2023-08-15T09:24:59.249Z,28.90
2023-08-15T09:28:02.821Z,29.00
2023-08-15T09:31:06.014Z,29.18
2023-08-15T09:34:12.075Z,29.10
2023-08-15T09:37:15.735Z,29.31
2023-08-15T09:40:27.894Z,29.40
2023-08-15T09:43:31.926Z,29.60
2023-08-15T09:46:35.598Z,29.60
2023-08-15T09:49:39.417Z,29.79
2023-08-15T09:52:44.593Z,29.77
2023-08-15T09:55:48.383Z,29.87
2023-08-15T09:58:51.404Z,30.11
2023-08-15T10:01:58.683Z,30.45
2023-08-15T10:05:04.617Z,30.63
2023-08-15T10:08:11.034Z,30.67
2023-08-15T10:11:14.846Z,30.85
2023-08-15T10:14:22.768Z,30.89
2023-08-15T10:17:30.803Z,30.96
2023-08-15T10:20:37.843Z,31.08
2023-08-15T10:23:41.080Z,30.94
2023-08-15T10:26:47.307Z,31.47
2023-08-15T10:30:00.504Z,31.44
2023-08-15T10:33:12.481Z,31.71
2023-08-15T10:36:16.281Z,31.65
2023-08-15T10:39:22.251Z,31.76
2023-08-15T10:42:26.281Z,31.94
2023-08-15T10:45:32.713Z,32.08
2023-08-15T10:48:55.506Z,32.03
2023-08-15T10:52:04.062Z,31.87
2023-08-15T10:55:16.152Z,31.82
2023-08-15T10:58:22.950Z,32.18
2023-08-15T11:01:27.966Z,32.45
2023-08-15T11:04:32.445Z,32.49
2023-08-15T11:07:35.295Z,32.40
2023-08-15T11:10:44.109Z,32.39
2023-08-15T11:13:49.467Z,32.79
2023-08-15T11:16:52.636Z,32.87
2023-08-15T11:19:56.474Z,32.60
2023-08-15T11:23:00.927Z,32.82
2023-08-15T11:26:07.204Z,33.21
2023-08-15T11:29:14.527Z,33.37
2023-08-15T11:32:18.465Z,33.51
2023-08-15T11:35:23.090Z,33.38
2023-08-15T11:38:30.057Z,33.96
2023-08-15T11:41:36.503Z,33.86
2023-08-15T11:44:40.756Z,34.04
2023-08-15T11:47:57.520Z,34.10
2023-08-15T11:51:01.482Z,34.23
2023-08-15T11:54:05.010Z,34.46
2023-08-15T11:57:08.949Z,34.12
2023-08-15T12:00:12.475Z,34.25
2023-08-15T12:03:16.952Z,34.17
2023-08-15T12:06:20.214Z,34.83
2023-08-15T12:09:30.811Z,35.28
2023-08-15T12:12:46.778Z,34.80
2023-08-15T12:15:51.159Z,35.20
2023-08-15T12:18:55.001Z,35.87
2023-08-15T12:21:58.233Z,36.10
2023-08-15T12:25:01.249Z,37.43
2023-08-15T12:28:05.797Z,37.46
2023-08-15T12:31:09.644Z,37.18
2023-08-15T12:34:12.647Z,37.10
2023-08-15T12:37:15.662Z,37.73
2023-08-15T12:40:30.545Z,39.55
2023-08-15T12:43:34.981Z,39.53
2023-08-15T12:46:37.868Z,38.08
2023-08-15T12:49:41.707Z,36.97
2023-08-15T12:52:45.025Z,35.87
2023-08-15T12:55:47.878Z,37.01
2023-08-15T12:58:51.638Z,39.26
2023-08-15T13:01:56.149Z,40.37
2023-08-15T13:04:59.186Z,41.42
2023-08-15T13:08:05.320Z,39.06
2023-08-15T13:11:08.309Z,36.91
2023-08-15T13:14:12.101Z,35.85
2023-08-15T13:17:14.884Z,35.12
2023-08-15T13:20:18.064Z,35.38
2023-08-15T13:23:22.895Z,35.97
2023-08-15T13:26:26.798Z,35.91
2023-08-15T13:29:29.674Z,35.94
2023-08-15T13:32:33.744Z,36.52
2023-08-15T13:35:37.613Z,37.36
2023-08-15T13:38:40.812Z,37.26
2023-08-15T13:41:45.439Z,38.87
2023-08-15T13:44:48.982Z,38.84
2023-08-15T13:47:52.949Z,39.16
2023-08-15T13:50:56.648Z,40.16
2023-08-15T13:54:03.198Z,38.78
2023-08-15T13:57:07.065Z,39.54
2023-08-15T14:00:11.293Z,41.60
2023-08-15T14:03:15.038Z,40.61
2023-08-15T14:06:18.149Z,40.58
2023-08-15T14:09:24.705Z,39.57
2023-08-15T14:12:28.473Z,38.42
2023-08-15T14:15:31.418Z,37.13
2023-08-15T14:18:35.101Z,36.30
2023-08-15T14:21:38.599Z,35.75
2023-08-15T14:24:48.077Z,36.00
2023-08-15T14:27:51.100Z,37.16
2023-08-15T14:30:54.817Z,37.75
2023-08-15T14:33:58.591Z,37.19
2023-08-15T14:37:01.577Z,36.59
2023-08-15T14:40:05.895Z,37.82
2023-08-15T14:43:10.582Z,38.20
2023-08-15T14:46:14.250Z,38.22
2023-08-15T14:49:17.673Z,38.30
2023-08-15T14:52:23.113Z,35.85
2023-08-15T14:55:26.096Z,35.67
2023-08-15T14:58:29.219Z,35.89
2023-08-15T15:01:33.196Z,35.69
2023-08-15T15:04:36.706Z,35.72
2023-08-15T15:07:39.802Z,34.82
2023-08-15T15:10:43.868Z,34.49
2023-08-15T15:13:47.138Z,34.91
2023-08-15T15:16:51.554Z,34.83
2023-08-15T15:19:54.611Z,35.08
2023-08-15T15:22:58.162Z,35.21
2023-08-15T15:26:01.033Z,35.10
2023-08-15T15:29:04.015Z,35.26
2023-08-15T15:32:07.740Z,35.23
2023-08-15T15:35:12.274Z,35.07
2023-08-15T15:38:15.151Z,34.79
2023-08-15T15:41:18.161Z,34.92
2023-08-15T15:44:21.229Z,34.67
2023-08-15T15:47:24.772Z,34.62
2023-08-15T15:50:28.234Z,34.44
2023-08-15T15:53:31.227Z,34.34
2023-08-15T15:56:34.118Z,34.22
2023-08-15T15:59:37.045Z,34.14
2023-08-15T16:02:40.039Z,33.75
2023-08-15T16:05:43.140Z,33.76
2023-08-15T16:08:46.805Z,34.00
2023-08-15T16:11:50.345Z,33.49
2023-08-15T16:14:53.773Z,33.60
2023-08-15T16:17:57.070Z,33.60
2023-08-15T16:20:59.906Z,33.31
2023-08-15T16:24:02.820Z,33.42
2023-08-15T16:27:05.911Z,33.52
2023-08-15T16:30:17.843Z,33.53
2023-08-15T16:33:22.417Z,33.45
2023-08-15T16:36:26.323Z,33.45
2023-08-15T16:39:29.817Z,33.21
2023-08-15T16:42:32.686Z,33.33
2023-08-15T16:45:35.516Z,33.04
2023-08-15T16:48:39.300Z,32.91
2023-08-15T16:51:42.178Z,32.83
2023-08-15T16:54:45.053Z,33.01
2023-08-15T16:57:48.779Z,33.06
2023-08-15T17:00:51.698Z,32.69
2023-08-15T17:03:54.800Z,32.72
2023-08-15T17:06:57.848Z,32.44
2023-08-15T17:10:00.962Z,32.34
2023-08-15T17:13:05.795Z,32.32
2023-08-15T17:16:12.323Z,32.38
2023-08-15T17:19:15.333Z,32.06
2023-08-15T17:22:18.286Z,32.20
2023-08-15T17:25:21.203Z,31.94
2023-08-15T17:28:24.934Z,31.80
2023-08-15T17:31:28.504Z,31.34
2023-08-15T17:34:31.461Z,31.32
2023-08-15T17:37:34.485Z,31.42
2023-08-15T17:40:38.435Z,31.32
2023-08-15T17:43:41.498Z,31.24
2023-08-15T17:46:44.405Z,31.11
2023-08-15T17:49:47.379Z,31.18
2023-08-15T17:52:50.374Z,31.23
2023-08-15T17:55:53.215Z,31.25
2023-08-15T17:58:56.218Z,31.21
2023-08-15T18:02:01.394Z,31.09
2023-08-15T18:05:06.786Z,31.15
2023-08-15T18:08:11.011Z,30.85
2023-08-15T18:11:14.830Z,30.87
2023-08-15T18:14:18.509Z,30.85
2023-08-15T18:17:24.800Z,30.79
2023-08-15T18:20:28.577Z,30.73
2023-08-15T18:23:32.003Z,30.54
2023-08-15T18:26:36.098Z,30.33
2023-08-15T18:29:38.976Z,30.30
2023-08-15T18:32:43.060Z,30.25
2023-08-15T18:35:46.510Z,30.05
2023-08-15T18:38:49.504Z,30.06
2023-08-15T18:41:53.172Z,29.94
2023-08-15T18:44:57.044Z,29.87
2023-08-15T18:48:00.554Z,29.99
2023-08-15T18:51:04.349Z,30.02
2023-08-15T18:54:09.071Z,30.02
2023-08-15T18:57:13.052Z,29.95
2023-08-15T19:00:18.191Z,29.84
2023-08-15T19:03:23.803Z,29.76
2023-08-15T19:06:26.876Z,29.65
2023-08-15T19:09:31.309Z,29.53
2023-08-15T19:12:37.267Z,29.45
2023-08-15T19:15:41.173Z,29.40
2023-08-15T19:18:44.095Z,29.33
2023-08-15T19:21:47.492Z,29.16
2023-08-15T19:24:50.774Z,29.08
2023-08-15T19:27:54.506Z,29.00
2023-08-15T19:30:58.560Z,28.98
2023-08-15T19:34:02.327Z,28.91
2023-08-15T19:37:05.268Z,28.80
2023-08-15T19:40:12.272Z,28.68
2023-08-15T19:43:15.084Z,28.62
2023-08-15T19:46:18.202Z,28.55
2023-08-15T19:49:22.155Z,28.39
2023-08-15T19:52:25.255Z,28.27
2023-08-15T19:55:31.928Z,28.15
2023-08-15T19:58:36.068Z,27.98
2023-08-15T20:01:41.942Z,27.86
2023-08-15T20:04:45.629Z,27.94
2023-08-15T20:07:49.029Z,28.03
2023-08-15T20:10:52.822Z,28.02
2023-08-15T20:13:55.748Z,27.94
2023-08-15T20:16:58.694Z,27.84
2023-08-15T20:20:03.462Z,27.79
2023-08-15T20:23:07.661Z,27.78
2023-08-15T20:26:11.123Z,27.73
2023-08-15T20:29:14.027Z,27.46
2023-08-15T20:32:17.618Z,27.50
2023-08-15T20:35:21.192Z,27.62
2023-08-15T20:38:24.002Z,27.75
2023-08-15T20:41:26.969Z,27.89
2023-08-15T20:44:30.688Z,28.02
2023-08-15T20:47:33.622Z,28.04
2023-08-15T20:50:37.449Z,27.88
2023-08-15T20:53:40.409Z,28.09
2023-08-15T20:56:44.399Z,27.98
2023-08-15T20:59:47.371Z,27.80
2023-08-15T21:02:51.224Z,27.70
2023-08-15T21:05:55.176Z,27.54
2023-08-15T21:08:58.728Z,27.47
2023-08-15T21:12:01.767Z,27.67
2023-08-15T21:15:05.046Z,27.69
2023-08-15T21:18:08.877Z,27.41
2023-08-15T21:21:11.806Z,27.57
2023-08-15T21:24:14.868Z,27.64
2023-08-15T21:27:18.812Z,27.55
2023-08-15T21:30:22.881Z,27.51
2023-08-15T21:33:26.648Z,27.57
2023-08-15T21:36:29.699Z,27.55
2023-08-15T21:39:33.355Z,27.37
2023-08-15T21:42:38.280Z,27.42
2023-08-15T21:45:45.861Z,27.40
2023-08-15T21:48:48.869Z,27.40
2023-08-15T21:51:51.735Z,27.31
2023-08-15T21:54:55.353Z,27.26
2023-08-15T21:57:58.554Z,27.22
2023-08-15T22:01:03.492Z,27.20
2023-08-15T22:04:07.295Z,27.05
2023-08-15T22:07:10.936Z,27.04
2023-08-15T22:10:13.901Z,27.01
2023-08-15T22:13:17.850Z,26.93
2023-08-15T22:16:21.320Z,26.91
2023-08-15T22:19:24.261Z,26.87
2023-08-15T22:22:27.882Z,26.86
2023-08-15T22:25:30.729Z,26.63
2023-08-15T22:28:33.652Z,26.53
2023-08-15T22:31:36.745Z,26.59
2023-08-15T22:34:39.767Z,26.58
2023-08-15T22:37:45.854Z,26.11
2023-08-15T22:40:52.112Z,26.13
2023-08-15T22:43:54.963Z,25.90
2023-08-15T22:46:57.919Z,25.97
2023-08-15T22:50:01.814Z,25.92
2023-08-15T22:53:04.935Z,25.81
2023-08-15T22:56:08.216Z,25.69
2023-08-15T22:59:11.852Z,25.58
2023-08-15T23:02:15.289Z,25.65
2023-08-15T23:05:18.588Z,25.81
2023-08-15T23:08:22.744Z,25.83
2023-08-15T23:11:28.344Z,25.76
2023-08-15T23:14:31.898Z,25.58
2023-08-15T23:17:35.386Z,25.70
2023-08-15T23:20:38.504Z,25.80
2023-08-15T23:23:41.466Z,25.74
2023-08-15T23:26:44.961Z,25.72
2023-08-15T23:29:49.088Z,25.61
2023-08-15T23:32:52.089Z,25.68
2023-08-15T23:35:54.983Z,25.66
2023-08-15T23:38:58.562Z,25.64
2023-08-15T23:42:02.617Z,25.51
2023-08-15T23:45:09.014Z,25.42
2023-08-15T23:48:13.455Z,25.41
2023-08-15T23:51:17.066Z,25.42
2023-08-15T23:54:20.148Z,25.36
2023-08-15T23:57:24.639Z,25.24
